Time;durP1;ratioP1;P1;durP2;ratioP2;P2;SDS_P1;SDS_P2;PMS_P1;PMS_P2;Temp;Humidity;BMP_temperature;BMP_pressure;BME280_temperature;BME280_humidity;BME280_pressure;Samples;Min_cycle;Max_cycle;Signal;HPM_P1;HPM_P2
2022/01/12 00:01:21;;;;;;;25.20;11.20;;;;;;;-1.56;100.00;102003.63;5112060;28;20051;-72
2022/01/12 00:03:49;;;;;;;22.77;11.80;;;;;;;-1.62;100.00;102006.97;5111570;28;20050;-72
2022/01/12 00:06:18;;;;;;;24.83;12.43;;;;;;;-1.70;100.00;102007.81;5112678;28;20043;-72
2022/01/12 00:08:48;;;;;;;24.10;11.75;;;;;;;-1.37;100.00;101994.47;5111430;28;20103;-72
2022/01/12 00:11:17;;;;;;;23.08;12.75;;;;;;;-1.36;100.00;101993.44;5111985;28;20043;-72
2022/01/12 00:13:46;;;;;;;20.55;11.85;;;;;;;-1.41;100.00;102005.69;5112171;28;20058;-72
2022/01/12 00:16:13;;;;;;;22.13;11.60;;;;;;;-1.50;100.00;102016.41;5112801;28;20044;-72
2022/01/12 00:18:42;;;;;;;29.63;12.43;;;;;;;-1.40;100.00;102010.91;5112465;28;20047;-72
2022/01/12 00:21:10;;;;;;;22.08;12.52;;;;;;;-1.14;100.00;102019.84;5111753;28;20050;-72
2022/01/12 00:23:40;;;;;;;23.88;10.93;;;;;;;-1.25;100.00;102015.63;5111512;28;20853;-72
2022/01/12 00:26:23;;;;;;;19.35;10.75;;;;;;;-1.39;100.00;102031.41;5112174;28;20383;-72
2022/01/12 00:34:37;;;;;;;20.58;10.65;;;;;;;-1.60;100.00;102037.22;5097924;28;20039;-72
2022/01/12 00:37:05;;;;;;;18.73;10.88;;;;;;;-1.73;100.00;102045.72;5093693;28;20052;-72
2022/01/12 00:39:33;;;;;;;25.65;11.35;;;;;;;-1.81;100.00;102026.91;5093729;28;20071;-72
2022/01/12 00:42:01;;;;;;;21.88;11.52;;;;;;;-1.78;100.00;102032.78;5093341;28;20048;-72
2022/01/12 00:44:35;;;;;;;22.40;11.05;;;;;;;-1.77;100.00;102050.56;5093596;28;20406;-72
2022/01/12 00:47:03;;;;;;;19.77;11.38;;;;;;;-1.86;100.00;102056.88;5111688;28;20058;-72
2022/01/12 00:49:34;;;;;;;22.20;11.82;;;;;;;-1.90;100.00;102036.75;5093446;28;20050;-72
2022/01/12 00:52:02;;;;;;;19.77;10.55;;;;;;;-1.81;100.00;102034.94;5093681;28;20053;-72
2022/01/12 00:54:31;;;;;;;19.05;11.35;;;;;;;-1.82;100.00;102049.34;5113108;28;20044;-72
2022/01/12 00:56:59;;;;;;;22.10;10.52;;;;;;;-1.87;100.00;102051.69;5115580;28;20052;-72
2022/01/12 00:59:27;;;;;;;19.45;10.95;;;;;;;-1.96;100.00;102054.31;5096808;28;20054;-72
2022/01/12 01:01:56;;;;;;;20.75;10.88;;;;;;;-2.04;100.00;102062.34;5097347;28;20051;-72
2022/01/12 01:04:26;;;;;;;21.95;10.77;;;;;;;-2.10;100.00;102061.09;5116236;28;20058;-72
2022/01/12 01:06:55;;;;;;;18.73;10.70;;;;;;;-2.12;100.00;102063.13;5115155;28;20040;-72
2022/01/12 01:09:24;;;;;;;24.30;11.43;;;;;;;-2.12;100.00;102062.25;5098200;28;20055;-72
2022/01/12 01:11:55;;;;;;;20.92;10.77;;;;;;;-2.12;100.00;102070.31;5115180;28;20047;-72
2022/01/12 01:14:37;;;;;;;17.80;9.88;;;;;;;-2.16;100.00;102080.53;5098156;28;20425;-72
2022/01/12 01:27:57;;;;;;;22.67;11.13;;;;;;;-1.63;100.00;102059.84;5097300;28;20055;-72
2022/01/12 01:30:25;;;;;;;19.23;9.88;;;;;;;-1.71;100.00;102054.44;5131436;27;20403;-72
2022/01/12 01:32:57;;;;;;;20.10;10.85;;;;;;;-1.53;100.00;102056.16;5097361;28;20050;-72
2022/01/12 01:35:27;;;;;;;24.58;11.32;;;;;;;-1.54;100.00;102059.88;5096448;28;20058;-72
2022/01/12 01:37:55;;;;;;;16.50;9.63;;;;;;;-1.74;100.00;102068.19;5129902;27;20516;-72
2022/01/12 01:40:23;;;;;;;20.85;10.75;;;;;;;-1.91;100.00;102064.59;5096625;28;20056;-72
2022/01/12 01:53:53;;;;;;;22.77;10.77;;;;;;;-2.34;100.00;102059.13;5097377;28;20048;-71
2022/01/12 01:56:25;;;;;;;16.52;8.88;;;;;;;-2.38;100.00;102063.97;5112585;28;20070;-71
2022/01/12 01:58:53;;;;;;;25.30;10.50;;;;;;;-2.25;100.00;102063.53;5108138;28;20083;-71
2022/01/12 02:01:23;;;;;;;20.70;11.23;;;;;;;-1.86;100.00;102064.09;5094687;28;20047;-71
2022/01/12 02:04:01;;;;;;;18.13;9.13;;;;;;;-1.89;100.00;102058.03;5094288;28;20047;-71
2022/01/12 02:06:31;;;;;;;20.25;9.77;;;;;;;-1.90;100.00;102067.09;5094158;28;20052;-71
2022/01/12 02:08:59;;;;;;;19.65;8.63;;;;;;;-2.03;99.95;102066.69;5092799;28;20092;-71
2022/01/12 02:11:40;;;;;;;16.42;8.45;;;;;;;-2.15;100.00;102066.13;5094839;28;20047;-71
2022/01/12 02:14:14;;;;;;;15.35;8.75;;;;;;;-2.24;100.00;102059.88;5096456;28;20050;-71
2022/01/12 02:16:53;;;;;;;15.82;8.18;;;;;;;-2.28;100.00;102066.53;5096054;28;20063;-71
2022/01/12 02:36:32;;;;;;;14.65;7.88;;;;;;;-2.21;98.96;102074.78;5112990;28;20062;-71
2022/01/12 02:41:49;;;;;;;16.17;8.35;;;;;;;-2.21;98.94;102074.78;5113138;28;20525;-71
2022/01/12 02:55:28;;;;;;;15.82;7.97;;;;;;;-2.22;99.17;102073.09;5113615;28;20070;-71
2022/01/12 02:57:56;;;;;;;17.25;8.27;;;;;;;-1.99;98.24;102070.75;5095576;28;20432;-71
2022/01/12 03:00:33;;;;;;;14.43;8.25;;;;;;;-1.86;98.21;102072.16;5113664;28;20070;-71
2022/01/12 03:03:03;;;;;;;22.63;9.40;;;;;;;-1.94;97.07;102075.63;5113258;28;20058;-71
2022/01/12 03:08:09;;;;;;;16.65;8.60;;;;;;;-2.13;98.42;102072.19;5095918;28;20048;-71
2022/01/12 03:10:37;;;;;;;13.65;7.50;;;;;;;-2.15;97.94;102071.50;5113730;28;20043;-71
2022/01/12 03:13:05;;;;;;;17.27;8.52;;;;;;;-2.16;97.68;102078.69;5094792;28;20052;-71
2022/01/12 03:15:39;;;;;;;18.27;7.70;;;;;;;-2.20;97.39;102090.72;5094333;28;20040;-71
2022/01/12 03:18:09;;;;;;;14.52;7.70;;;;;;;-2.30;97.87;102090.84;5113443;28;20043;-71
2022/01/12 03:20:38;;;;;;;15.50;7.68;;;;;;;-2.36;98.60;102087.91;5094812;28;20051;-71
2022/01/12 03:23:08;;;;;;;12.38;7.32;;;;;;;-2.33;98.54;102093.00;5095013;28;20051;-71
2022/01/12 03:25:36;;;;;;;16.02;6.90;;;;;;;-2.32;98.38;102084.78;5094959;28;20058;-70
2022/01/12 03:28:06;;;;;;;13.48;7.40;;;;;;;-2.22;97.69;102095.41;5095040;28;20054;-71
2022/01/12 03:30:51;;;;;;;15.45;7.50;;;;;;;-2.17;97.99;102095.78;5095301;28;20036;-71
2022/01/12 03:34:06;;;;;;;18.30;8.48;;;;;;;-1.94;96.75;102094.41;5094704;28;20058;-71
2022/01/12 03:39:04;;;;;;;15.98;7.00;;;;;;;-2.01;96.31;102107.63;5094767;28;20052;-70
2022/01/12 03:41:36;;;;;;;12.48;6.45;;;;;;;-2.16;98.26;102120.75;5095186;28;20035;-70
2022/01/12 03:44:07;;;;;;;12.73;6.78;;;;;;;-2.21;97.40;102128.44;5128819;27;20074;-71
2022/01/12 03:46:46;;;;;;;14.82;7.63;;;;;;;-2.27;97.09;102129.06;5095080;28;20062;-71
2022/01/12 03:49:18;;;;;;;12.88;6.82;;;;;;;-2.16;97.51;102126.13;5094594;28;20402;-71
2022/01/12 03:51:50;;;;;;;11.25;7.32;;;;;;;-2.12;96.99;102118.59;5094929;28;20035;-71
2022/01/12 03:54:20;;;;;;;12.18;7.82;;;;;;;-2.27;97.46;102132.59;5094693;28;20393;-71
2022/01/12 03:56:49;;;;;;;14.02;7.68;;;;;;;-2.38;97.96;102132.84;5095041;28;20047;-71
2022/01/12 03:59:17;;;;;;;12.55;7.45;;;;;;;-2.50;98.81;102141.13;5094475;28;20054;-71
2022/01/12 04:01:45;;;;;;;12.82;7.20;;;;;;;-2.52;99.55;102132.41;5094682;28;20054;-71
2022/01/12 04:04:30;;;;;;;13.30;7.45;;;;;;;-2.58;99.62;102135.69;5094060;28;20058;-71
2022/01/12 04:09:47;;;;;;;11.52;7.30;;;;;;;-2.29;99.59;102139.97;5079845;28;20050;-71
2022/01/12 04:12:16;;;;;;;16.67;8.13;;;;;;;-2.07;98.01;102141.28;5094351;28;20046;-71
2022/01/12 04:14:44;;;;;;;13.98;7.00;;;;;;;-2.19;97.44;102138.00;5112873;28;20462;-71
2022/01/12 04:17:14;;;;;;;15.93;7.50;;;;;;;-2.31;97.67;102149.97;5094228;28;20393;-71
2022/01/12 04:19:45;;;;;;;14.90;7.22;;;;;;;-2.36;97.93;102158.50;5128383;27;20062;-71
2022/01/12 04:25:00;;;;;;;13.15;7.18;;;;;;;-2.09;97.18;102155.88;5094281;28;20039;-71
2022/01/12 04:27:28;;;;;;;14.32;7.25;;;;;;;-2.00;96.90;102157.63;5093722;28;20054;-71
2022/01/12 04:29:56;;;;;;;15.48;7.47;;;;;;;-1.94;95.94;102167.72;5093178;28;20054;-71
2022/01/12 04:32:25;;;;;;;11.90;6.63;;;;;;;-2.10;96.69;102164.91;5094032;28;20051;-71
2022/01/12 04:34:54;;;;;;;13.10;6.80;;;;;;;-2.18;97.46;102171.03;5093913;28;20066;-72
2022/01/12 04:37:21;;;;;;;14.93;7.82;;;;;;;-2.09;97.19;102166.59;5112182;28;20063;-72
2022/01/12 04:39:49;;;;;;;13.80;7.47;;;;;;;-2.09;96.92;102164.75;5112423;28;20513;-72
2022/01/12 04:42:17;;;;;;;15.13;7.03;;;;;;;-2.20;97.52;102167.69;5082680;28;20071;-72
2022/01/12 04:44:48;;;;;;;14.25;6.85;;;;;;;-2.37;99.23;102162.19;5110325;28;20039;-72
2022/01/12 04:47:29;;;;;;;18.02;8.20;;;;;;;-2.38;99.62;102165.88;5112549;28;20516;-72
2022/01/12 04:49:59;;;;;;;15.38;7.57;;;;;;;-2.31;99.36;102169.59;5093688;28;20051;-72
2022/01/12 04:52:28;;;;;;;14.07;7.20;;;;;;;-2.38;99.81;102171.22;5092747;28;20073;-73
2022/01/12 04:54:59;;;;;;;11.40;6.75;;;;;;;-2.47;99.94;102186.41;5093906;28;20058;-71
2022/01/12 04:57:27;;;;;;;18.17;7.75;;;;;;;-2.40;100.00;102186.59;5093718;28;20043;-72
2022/01/12 05:00:07;;;;;;;13.20;8.00;;;;;;;-2.20;100.00;102184.59;5093361;28;20047;-72
2022/01/12 05:13:31;;;;;;;14.75;7.40;;;;;;;-2.51;100.00;102182.34;5094149;28;20040;-71
2022/01/12 05:16:01;;;;;;;13.32;7.38;;;;;;;-2.36;100.00;102177.28;5124206;28;20118;-72
2022/01/12 05:18:34;;;;;;;14.77;8.65;;;;;;;-2.46;100.00;102182.72;5094010;28;20051;-71
2022/01/12 05:21:03;;;;;;;22.40;8.80;;;;;;;-2.58;100.00;102197.34;5074822;28;20604;-71
2022/01/12 05:23:32;;;;;;;11.15;7.30;;;;;;;-2.64;100.00;102211.34;5111789;28;20043;-71
2022/01/12 05:26:01;;;;;;;13.20;8.52;;;;;;;-2.50;100.00;102205.47;5093714;28;20058;-71
2022/01/12 05:28:30;;;;;;;18.80;9.45;;;;;;;-2.58;100.00;102210.75;5093564;28;20544;-72
2022/01/12 05:31:00;;;;;;;15.75;8.43;;;;;;;-2.52;100.00;102214.66;5093275;28;20048;-72
2022/01/12 05:33:29;;;;;;;14.02;8.05;;;;;;;-2.64;100.00;102204.16;5077027;28;20044;-71
2022/01/12 05:35:58;;;;;;;17.35;9.70;;;;;;;-2.39;100.00;102206.22;5111446;28;20051;-71
2022/01/12 05:38:29;;;;;;;19.30;11.00;;;;;;;-2.36;100.00;102205.91;5111215;28;20514;-71
2022/01/12 05:41:05;;;;;;;26.27;14.07;;;;;;;-2.54;100.00;102227.38;5095421;28;20062;-72
2022/01/12 05:43:35;;;;;;;16.17;9.57;;;;;;;-2.78;100.00;102221.59;5121959;27;20054;-71
2022/01/12 05:46:13;;;;;;;14.50;7.85;;;;;;;-2.74;100.00;102220.28;5096600;28;20051;-71
2022/01/12 05:51:37;;;;;;;13.32;8.20;;;;;;;-2.63;100.00;102221.06;5108346;28;20043;-72
2022/01/12 05:54:06;;;;;;;14.65;9.48;;;;;;;-2.73;100.00;102224.66;5087538;28;20040;-71
2022/01/12 05:56:34;;;;;;;14.90;8.27;;;;;;;-2.92;100.00;102232.81;5106156;28;20059;-71
2022/01/12 05:59:03;;;;;;;13.23;8.23;;;;;;;-3.08;100.00;102236.97;5108925;28;20052;-71
2022/01/12 06:01:32;;;;;;;19.63;8.43;;;;;;;-3.18;100.00;102233.50;5126361;27;20039;-72
2022/01/12 06:04:01;;;;;;;19.25;8.70;;;;;;;-3.26;100.00;102237.75;5079704;28;20040;-73
2022/01/12 06:06:29;;;;;;;19.45;8.38;;;;;;;-3.26;100.00;102236.91;5089687;28;20046;-72
2022/01/12 06:08:58;;;;;;;18.95;8.48;;;;;;;-3.14;100.00;102237.56;5094451;28;20413;-72
2022/01/12 06:11:27;;;;;;;20.90;9.15;;;;;;;-2.97;100.00;102257.38;5083880;28;20048;-73
2022/01/12 06:13:58;;;;;;;18.52;8.95;;;;;;;-2.90;100.00;102257.59;5075366;28;20062;-73
2022/01/12 06:16:29;;;;;;;20.08;8.82;;;;;;;-2.80;100.00;102266.44;5113963;27;20055;-72
2022/01/12 06:18:58;;;;;;;17.23;8.77;;;;;;;-2.75;100.00;102266.84;5082441;28;20048;-74
2022/01/12 06:21:29;;;;;;;17.88;9.80;;;;;;;-2.85;100.00;102266.03;5089863;28;20051;-73
2022/01/12 06:24:12;;;;;;;18.73;8.55;;;;;;;-2.72;100.00;102274.59;5093827;28;20051;-72
2022/01/12 06:26:43;;;;;;;19.77;10.13;;;;;;;-2.80;100.00;102287.06;5078803;28;20047;-72
2022/01/12 06:31:41;;;;;;;14.35;7.78;;;;;;;-2.99;100.00;102297.69;5093365;28;20051;-72
2022/01/12 06:34:10;;;;;;;14.18;8.23;;;;;;;-3.01;100.00;102294.34;5089220;28;20048;-75
2022/01/12 06:36:38;;;;;;;16.52;8.32;;;;;;;-3.11;100.00;102299.72;5107241;28;20490;-73
2022/01/12 06:39:12;;;;;;;18.73;8.82;;;;;;;-3.19;100.00;102296.09;5084985;28;20039;-73
2022/01/12 06:41:41;;;;;;;18.15;9.70;;;;;;;-2.94;100.00;102304.47;5092281;28;20572;-78
2022/01/12 06:44:14;;;;;;;18.50;9.38;;;;;;;-3.03;100.00;102301.66;5098624;28;20059;-79
2022/01/12 06:46:43;;;;;;;21.95;9.82;;;;;;;-2.92;100.00;102297.97;5093386;28;20060;-80
2022/01/12 06:49:13;;;;;;;13.38;8.57;;;;;;;-2.64;100.00;102313.22;5087001;28;20056;-79
2022/01/12 06:51:41;;;;;;;16.00;8.95;;;;;;;-2.67;100.00;102311.69;5079706;28;20070;-78
2022/01/12 06:54:12;;;;;;;13.32;7.43;;;;;;;-2.83;100.00;102315.00;5092119;28;20070;-78
2022/01/12 06:56:41;;;;;;;16.70;7.72;;;;;;;-2.97;100.00;102321.66;5076819;28;20059;-78
2022/01/12 06:59:09;;;;;;;15.07;8.55;;;;;;;-3.03;100.00;102317.72;5071746;28;20055;-80
2022/01/12 07:01:39;;;;;;;21.58;8.77;;;;;;;-3.14;100.00;102320.59;5071150;28;20052;-86
2022/01/12 07:04:09;;;;;;;15.77;8.43;;;;;;;-3.20;100.00;102326.53;5071078;28;20404;-85
2022/01/12 07:06:37;;;;;;;15.45;8.60;;;;;;;-3.16;100.00;102334.13;5071710;28;20044;-86
2022/01/12 07:09:05;;;;;;;17.77;9.48;;;;;;;-3.03;100.00;102333.81;5072018;28;20391;-82
2022/01/12 07:11:45;;;;;;;17.23;9.15;;;;;;;-3.00;99.92;102333.53;5070681;28;20044;-79
2022/01/12 07:14:21;;;;;;;15.73;9.30;;;;;;;-3.05;99.68;102335.78;5071570;28;20521;-80
2022/01/12 07:16:49;;;;;;;16.27;9.15;;;;;;;-3.00;99.79;102333.53;5071371;28;20052;-80
2022/01/12 07:19:18;;;;;;;17.00;9.60;;;;;;;-3.00;99.82;102338.03;5051787;28;20045;-80
2022/01/12 07:21:48;;;;;;;17.02;9.30;;;;;;;-2.97;99.42;102343.09;5065827;28;20048;-79
2022/01/12 07:24:16;;;;;;;16.88;9.68;;;;;;;-2.93;99.48;102349.00;5072634;28;20463;-79
2022/01/12 07:26:46;;;;;;;15.55;8.68;;;;;;;-2.87;99.43;102357.31;5072628;28;20395;-79
2022/01/12 07:29:14;;;;;;;19.35;9.63;;;;;;;-2.83;98.60;102345.28;5073050;28;20048;-79
2022/01/12 07:31:42;;;;;;;18.67;8.90;;;;;;;-2.76;98.07;102350.94;5072747;28;20049;-79
2022/01/12 07:34:13;;;;;;;18.23;9.82;;;;;;;-2.41;97.68;102347.66;5072815;28;20052;-80
2022/01/12 07:36:42;;;;;;;20.77;10.43;;;;;;;-2.21;95.68;102354.59;5072307;28;20059;-79
2022/01/12 07:39:10;;;;;;;19.55;9.55;;;;;;;-2.22;95.66;102363.66;5072440;28;20048;-79
2022/01/12 07:41:38;;;;;;;14.23;9.05;;;;;;;-2.11;94.11;102369.81;5072146;28;20056;-79
2022/01/12 07:44:07;;;;;;;20.67;10.30;;;;;;;-2.02;94.07;102376.94;5103851;28;20049;-79
2022/01/12 07:46:35;;;;;;;18.50;10.00;;;;;;;-2.01;93.42;102383.97;5071981;28;20056;-80
2022/01/12 07:49:03;;;;;;;17.85;9.98;;;;;;;-1.65;93.82;102373.25;5072280;28;20056;-79
2022/01/12 07:51:31;;;;;;;24.35;10.68;;;;;;;-1.48;92.19;102370.72;5072746;28;20048;-79
2022/01/12 07:53:59;;;;;;;18.33;10.35;;;;;;;-1.50;91.25;102384.28;5070716;28;20045;-80
2022/01/12 07:56:27;;;;;;;20.67;10.43;;;;;;;-1.44;91.00;102390.91;5097397;28;20494;-80
2022/01/12 07:58:54;;;;;;;19.60;10.07;;;;;;;-1.41;90.74;102397.81;5111471;28;20044;-80
2022/01/12 08:01:23;;;;;;;22.77;10.75;;;;;;;-1.25;90.47;102403.34;5112150;28;20051;-79
2022/01/12 08:03:51;;;;;;;25.25;11.95;;;;;;;-1.04;88.79;102402.13;5111938;28;20054;-79
2022/01/12 08:06:20;;;;;;;20.77;11.07;;;;;;;-0.93;87.92;102397.50;5111846;28;20055;-80
2022/01/12 08:08:49;;;;;;;20.58;11.23;;;;;;;-0.73;88.05;102411.56;5111612;28;20055;-79
2022/01/12 08:11:16;;;;;;;17.90;10.27;;;;;;;-0.56;86.30;102405.28;5111856;28;20056;-79
2022/01/12 08:13:45;;;;;;;18.20;10.18;;;;;;;-0.26;85.36;102417.53;5111958;28;20058;-79
2022/01/12 08:16:13;;;;;;;18.65;10.65;;;;;;;-0.16;84.02;102407.44;5111889;28;20051;-79
2022/01/12 08:18:41;;;;;;;21.85;9.82;;;;;;;0.02;83.45;102409.19;5112553;28;20410;-79
2022/01/12 08:21:12;;;;;;;16.83;8.88;;;;;;;0.18;81.23;102421.84;5112249;28;20498;-79
2022/01/12 08:23:40;;;;;;;13.93;9.20;;;;;;;0.33;81.25;102427.44;5111499;28;20516;-80
2022/01/12 08:26:08;;;;;;;14.25;8.40;;;;;;;0.38;79.71;102422.41;5112254;28;20478;-79
2022/01/12 08:28:36;;;;;;;14.55;8.95;;;;;;;0.66;79.54;102419.41;5111284;28;20048;-79
2022/01/12 08:31:04;;;;;;;18.08;9.77;;;;;;;0.97;77.88;102412.50;5111133;28;20050;-79
2022/01/12 08:33:33;;;;;;;23.00;9.70;;;;;;;0.82;78.99;102418.56;5112196;28;20048;-80
2022/01/12 08:36:01;;;;;;;15.32;9.23;;;;;;;0.94;77.40;102424.47;5111213;28;20044;-79
2022/01/12 08:38:31;;;;;;;16.65;8.77;;;;;;;0.92;76.56;102421.06;5111570;28;20047;-79
2022/01/12 08:40:59;;;;;;;16.63;8.50;;;;;;;1.01;76.07;102436.25;5112288;28;20479;-82
2022/01/12 08:43:27;;;;;;;21.33;10.60;;;;;;;1.37;76.13;102428.78;5112328;28;20036;-79
2022/01/12 08:45:56;;;;;;;22.60;10.88;;;;;;;1.52;74.07;102432.41;5111976;28;20047;-73
2022/01/12 08:48:24;;;;;;;23.83;9.50;;;;;;;1.77;71.41;102435.06;5111623;28;20062;-79
2022/01/12 08:50:52;;;;;;;19.95;10.80;;;;;;;1.85;71.89;102432.31;5112189;28;20044;-79
2022/01/12 08:53:20;;;;;;;19.88;10.00;;;;;;;1.92;70.56;102431.59;5111421;28;20051;-80
2022/01/12 08:55:48;;;;;;;14.20;9.57;;;;;;;2.47;70.72;102434.31;5111064;28;20402;-78
2022/01/12 08:58:16;;;;;;;14.13;7.80;;;;;;;2.75;65.04;102436.50;5111036;28;20047;-81
2022/01/12 09:00:44;;;;;;;13.50;7.80;;;;;;;2.95;64.11;102437.66;5111329;28;20051;-83
2022/01/12 09:03:12;;;;;;;11.38;7.57;;;;;;;2.90;65.31;102444.66;5093455;28;20121;-83
2022/01/12 09:05:41;;;;;;;11.07;6.72;;;;;;;3.23;62.54;102442.47;5111257;28;20066;-83
2022/01/12 09:08:09;;;;;;;9.48;6.10;;;;;;;3.19;62.78;102446.56;5111700;28;20490;-81
2022/01/12 09:10:37;;;;;;;13.35;7.25;;;;;;;3.60;62.00;102455.28;5111592;28;20039;-81
2022/01/12 09:13:05;;;;;;;14.52;7.25;;;;;;;3.62;61.68;102453.25;5111609;28;20047;-80
2022/01/12 09:15:36;;;;;;;11.07;6.68;;;;;;;3.72;62.21;102459.22;5095124;28;20036;-82
2022/01/12 09:18:04;;;;;;;12.07;7.03;;;;;;;3.83;61.62;102449.78;5112553;28;20047;-78
2022/01/12 09:20:32;;;;;;;11.27;6.63;;;;;;;4.12;62.11;102452.63;5105247;28;20036;-78
2022/01/12 09:23:00;;;;;;;13.48;7.00;;;;;;;4.49;59.43;102461.59;5114505;28;20051;-77
2022/01/12 09:25:32;;;;;;;12.60;6.00;;;;;;;4.69;58.58;102464.50;5114908;28;20047;-76
2022/01/12 09:28:02;;;;;;;13.80;7.35;;;;;;;4.96;58.52;102469.34;5113686;28;20516;-76
2022/01/12 09:30:30;;;;;;;11.43;6.60;;;;;;;4.96;59.55;102469.34;5095702;28;20052;-76
2022/01/12 09:32:59;;;;;;;12.10;6.30;;;;;;;5.20;57.88;102464.53;5114964;28;20040;-76
2022/01/12 09:35:28;;;;;;;9.77;5.97;;;;;;;5.16;59.27;102476.81;5096271;28;20035;-74
2022/01/12 09:37:56;;;;;;;10.45;5.25;;;;;;;5.16;57.48;102484.94;5114744;28;20398;-77
2022/01/12 09:40:24;;;;;;;9.50;5.72;;;;;;;5.15;57.40;102478.69;5113149;28;20047;-76
2022/01/12 09:42:53;;;;;;;8.27;5.07;;;;;;;5.29;58.60;102468.78;5113722;28;20048;-76
2022/01/12 09:45:23;;;;;;;8.95;5.65;;;;;;;5.54;57.93;102476.47;5113860;28;20050;-77
2022/01/12 09:47:51;;;;;;;9.27;5.25;;;;;;;5.78;58.23;102472.41;5113951;28;20055;-76
2022/01/12 09:50:22;;;;;;;8.48;5.95;;;;;;;5.62;56.61;102468.16;5079043;28;20048;-76
2022/01/12 09:52:51;;;;;;;10.70;5.68;;;;;;;5.60;55.90;102463.94;5112875;28;20059;-76
2022/01/12 09:55:20;;;;;;;9.40;5.10;;;;;;;5.72;55.78;102470.50;5114705;28;20047;-76
2022/01/12 09:57:50;;;;;;;9.85;5.93;;;;;;;5.84;55.56;102459.91;5115031;28;20398;-76
2022/01/12 10:00:23;;;;;;;9.80;5.60;;;;;;;6.09;52.60;102480.31;5079953;28;20044;-76
2022/01/12 10:02:52;;;;;;;8.27;4.60;;;;;;;6.34;54.07;102466.22;5114542;28;20043;-76
2022/01/12 10:05:30;;;;;;;6.95;4.28;;;;;;;6.63;51.37;102475.88;5114059;28;20042;-76
2022/01/12 10:08:12;;;;;;;11.63;5.47;;;;;;;6.69;51.37;102482.38;5114446;28;20055;-76
2022/01/12 10:10:42;;;;;;;41.88;16.20;;;;;;;6.75;52.17;102467.94;5114324;28;20048;-76
2022/01/12 10:13:23;;;;;;;18.83;9.23;;;;;;;6.75;50.00;102476.09;5096589;28;20494;-77
2022/01/12 10:15:53;;;;;;;9.93;6.15;;;;;;;6.83;51.99;102478.66;5099944;28;20501;-76
2022/01/12 10:18:24;;;;;;;7.97;5.22;;;;;;;6.52;51.58;102480.06;5114771;28;20051;-74
2022/01/12 10:20:52;;;;;;;10.95;5.82;;;;;;;6.52;53.16;102481.94;5114185;28;20403;-74
2022/01/12 10:23:22;;;;;;;9.23;5.65;;;;;;;6.81;52.55;102475.31;5113873;28;20051;-74
2022/01/12 10:25:52;;;;;;;13.15;5.70;;;;;;;6.69;52.81;102472.34;5113781;28;20051;-73
2022/01/12 10:28:24;;;;;;;11.27;6.80;;;;;;;6.86;52.77;102475.50;5113434;27;20051;-74
2022/01/12 10:30:55;;;;;;;12.32;6.38;;;;;;;7.08;52.41;102469.84;5113512;28;20039;-73
2022/01/12 10:33:34;;;;;;;8.55;5.70;;;;;;;7.00;54.47;102467.34;5114119;28;20044;-73
2022/01/12 10:36:08;;;;;;;12.10;6.57;;;;;;;6.78;55.24;102459.38;5113921;28;20051;-74
2022/01/12 10:38:36;;;;;;;13.48;6.10;;;;;;;6.84;54.89;102450.38;5096587;28;20055;-73
2022/01/12 10:41:05;;;;;;;12.25;6.85;;;;;;;7.04;55.05;102446.81;5113440;28;20051;-73
2022/01/12 10:43:38;;;;;;;15.68;6.95;;;;;;;7.13;54.57;102447.44;5079227;28;20044;-73
2022/01/12 10:46:12;;;;;;;18.00;8.05;;;;;;;7.13;55.82;102455.59;5113807;28;20044;-73
2022/01/12 10:48:41;;;;;;;;;;;;;;;7.30;54.94;102447.84;5114271;28;20524;-74
2022/01/12 10:51:19;;;;;;;24.15;13.85;;;;;;;6.98;55.01;102448.50;5114079;28;19923;-73
2022/01/12 10:53:59;;;;;;;9.20;6.15;;;;;;;6.72;55.95;102450.19;5114024;28;20056;-73
2022/01/12 10:56:27;;;;;;;8.35;6.47;;;;;;;7.12;56.44;102453.94;5113442;28;20059;-73
2022/01/12 10:58:58;;;;;;;12.40;6.88;;;;;;;6.89;57.39;102452.47;5113513;28;20043;-73
2022/01/12 11:01:29;;;;;;;12.45;7.30;;;;;;;6.97;58.00;102448.69;5113234;28;20047;-73
2022/01/12 11:03:58;;;;;;;9.07;6.10;;;;;;;7.41;55.27;102451.81;5100963;28;20051;-73
2022/01/12 11:06:27;;;;;;;10.35;6.78;;;;;;;7.59;53.52;102450.31;5114116;28;20040;-73
2022/01/12 11:08:56;;;;;;;11.80;6.60;;;;;;;7.67;54.17;102439.16;5113167;28;20052;-73
2022/01/12 11:11:26;;;;;;;13.48;7.43;;;;;;;7.45;54.31;102442.16;5113111;28;20046;-73
2022/01/12 11:13:55;;;;;;;14.18;7.32;;;;;;;7.62;55.80;102441.72;5113431;28;20062;-73
2022/01/12 11:16:25;;;;;;;13.25;7.07;;;;;;;7.22;55.16;102435.28;5113680;28;20059;-74
2022/01/12 11:18:55;;;;;;;12.43;7.53;;;;;;;7.71;55.49;102440.41;5112201;28;20054;-73
2022/01/12 11:21:43;;;;;;;11.85;7.65;;;;;;;7.58;54.19;102446.72;5105932;28;20059;-73
2022/01/12 11:24:13;;;;;;;14.35;7.47;;;;;;;7.17;55.78;102443.25;5112871;28;20056;-73
2022/01/12 11:26:49;;;;;;;11.40;7.57;;;;;;;7.05;54.98;102443.06;5111856;28;20043;-73
2022/01/12 11:29:35;;;;;;;17.88;7.00;;;;;;;6.94;55.67;102436.34;5113009;28;20055;-73
2022/01/12 11:32:13;;;;;;;12.32;7.35;;;;;;;7.38;54.89;102428.56;5112685;28;20063;-73
2022/01/12 11:34:41;;;;;;;14.93;7.25;;;;;;;7.66;53.60;102438.34;5109155;28;20051;-73
2022/01/12 11:37:15;;;;;;;12.98;6.68;;;;;;;7.90;52.63;102432.38;5113406;28;20048;-73
2022/01/12 11:39:44;;;;;;;11.50;7.65;;;;;;;7.98;51.94;102442.22;5112528;28;20051;-73
2022/01/12 11:42:12;;;;;;;12.95;7.63;;;;;;;8.12;50.89;102429.34;5111750;28;20062;-74
2022/01/12 11:44:40;;;;;;;16.45;7.70;;;;;;;7.92;51.06;102428.38;5111168;28;20044;-74
2022/01/12 11:47:15;;;;;;;16.50;8.05;;;;;;;8.02;50.38;102425.19;5111277;28;20048;-73
2022/01/12 11:49:46;;;;;;;16.40;8.60;;;;;;;8.06;49.73;102431.03;5112568;28;20052;-74
2022/01/12 11:52:22;;;;;;;14.40;7.55;;;;;;;8.14;50.76;102427.22;5111769;28;20513;-74
2022/01/12 11:54:53;;;;;;;16.85;7.68;;;;;;;8.14;50.45;102416.31;5093587;27;20058;-74
2022/01/12 11:57:34;;;;;;;16.17;7.90;;;;;;;7.96;49.96;102412.44;5090611;28;20052;-74
2022/01/12 12:00:15;;;;;;;19.45;7.50;;;;;;;7.88;50.03;102423.59;5087026;28;20052;-74
2022/01/12 12:02:47;;;;;;;14.00;7.13;;;;;;;7.97;50.10;102411.38;5089358;28;20044;-74
2022/01/12 12:05:21;;;;;;;15.95;7.10;;;;;;;7.92;49.07;102409.31;5082738;28;20627;-74
2022/01/12 12:07:52;;;;;;;14.20;6.63;;;;;;;8.10;48.84;102417.81;5085604;28;20051;-74
2022/01/12 12:10:23;;;;;;;10.00;6.20;;;;;;;7.95;47.73;102402.59;5089958;28;20032;-74
2022/01/12 12:12:53;;;;;;;9.25;5.80;;;;;;;7.98;47.65;102404.03;5077653;28;20407;-74
2022/01/12 12:15:25;;;;;;;11.20;6.13;;;;;;;7.99;47.68;102392.91;5087163;28;20517;-74
2022/01/12 12:17:55;;;;;;;11.98;6.13;;;;;;;8.10;47.47;102402.28;5084690;28;20040;-74
2022/01/12 12:20:25;;;;;;;10.02;5.70;;;;;;;7.93;47.76;102402.78;5081316;28;20062;-74
2022/01/12 12:22:58;;;;;;;9.02;6.22;;;;;;;7.92;46.74;102408.47;5083030;28;20044;-74
2022/01/12 12:25:29;;;;;;;13.07;5.38;;;;;;;8.09;47.60;102408.81;5079028;28;20057;-74
2022/01/12 12:28:08;;;;;;;9.35;5.82;;;;;;;8.06;45.53;102412.81;5085283;28;20044;-74
2022/01/12 12:30:40;;;;;;;9.90;5.43;;;;;;;8.11;46.82;102400.41;5083121;28;20051;-74
2022/01/12 12:33:12;;;;;;;10.05;5.55;;;;;;;8.24;47.50;102404.94;5082165;28;20063;-74
2022/01/12 12:35:43;;;;;;;9.88;5.55;;;;;;;8.41;46.10;102400.63;5089740;28;20036;-73
2022/01/12 12:38:16;;;;;;;11.63;6.05;;;;;;;8.15;45.56;102396.19;5091196;28;20398;-73
2022/01/12 12:40:48;;;;;;;7.88;5.20;;;;;;;7.99;44.38;102400.25;5079297;28;20522;-74
2022/01/12 12:43:32;;;;;;;11.10;5.30;;;;;;;7.80;46.53;102394.69;5073738;28;20051;-73
2022/01/12 12:46:09;;;;;;;12.35;5.72;;;;;;;7.83;44.83;102393.41;5095012;28;20510;-73
2022/01/12 12:48:43;;;;;;;10.45;5.53;;;;;;;7.78;44.28;102375.81;5081799;28;20044;-74
2022/01/12 12:51:14;;;;;;;;;;;;;;;7.95;43.62;102380.78;5081976;28;20400;-74
2022/01/12 12:53:46;;;;;;;11.43;5.50;;;;;;;7.89;42.83;102377.03;5083281;28;19931;-74
2022/01/12 12:56:19;;;;;;;8.02;3.53;;;;;;;7.77;41.14;102365.16;5110931;27;20505;-73
2022/01/12 12:58:50;;;;;;;9.85;3.80;;;;;;;7.70;42.28;102369.78;5119684;27;20043;-73